SBGR/GRU METAR and TAF weather

Enter ICAO airport designator
Station Type Date Time Source
SBGR METAR 2019/06/27 08:00 UTC NOAA

SBGR 270800Z 00000KT 8000 NSC 17/16 Q1020


Station Type Date Time Source
SBGR Decoded METAR 2019/06/27 08:00 UTC NOAA

Guarulhos Civ / Mil , Brazil (SBGR) 23-26S 046-28W
Jun 27, 2019 - 04:00 AM EDT / 2019.06.27 0800 UTC
Wind: Calm:0
Visibility: 4 mile(s):0
Temperature: 62 F (17 C)
Dew Point: 60 F (16 C)
Relative Humidity: 93%
Pressure (altimeter): 30.12 in. Hg (1020 hPa)
ob: SBGR 270800Z 00000KT 8000 NSC 17/16 Q1020
cycle: 8

Station Type Date Time Source
SBGR TAF 2019/06/27 06:30 UTC NOAA

TAF SBGR 270140Z 2706/2812 13003KT 8000 BKN012TX23/2717Z TN15/2808Z PROB30 2707/2711 4000 BR BKN008
BECMG 2713/2715 06005KT SCT030
BECMG 2719/2721 13005KT BKN013
BECMG 2723/2801 06003KT NSC
BECMG 2804/2806 6000
BECMG 2806/2808 06002KT 4000 BR BKN008 PROB30 2808/2810 0700 FG BKN001
BECMG 2810/2812 08005KT 8000 NSW NSC
RMK PHG

Example: see airport list